Flight Track Log - Related Links

Times and Time Zones

All times are in EDT time to prevent confusion due to time zone crossing. See the AWI3722 flight status page for this flight to view local times or setup timezone preferences in your user account.

Time Position Orientation Groundspeed Altitude Reporting Facility
EDT Latitude Longitude Course Direction KTS MPH feet Rate Location/Type
Mon 01:53:56 PM 39.8667 -75.2833 90° East 168 193 500  Level Philadelphia TRACON
Mon 01:54:14 PM 39.8572 -75.2914 213° Southwest 161 185 1,000 1,737 Climbing FAA TRACON SMA TRACON (SMA)
Mon 01:54:34 PM 39.8472 -75.3089 233° Southwest 183 211 1,600 1,800 Climbing FAA TRACON SMA TRACON (SMA)
Mon 01:54:54 PM 39.8344 -75.3233 221° Southwest 193 222 2,200 2,341 Climbing FAA TRACON SMA TRACON (SMA)
Mon 01:55:15 PM 39.8183 -75.3414 221° Southwest 201 231 3,200 2,634 Climbing FAA TRACON SMA TRACON (SMA)
Mon 01:55:35 PM 39.8047 -75.3553 218° Southwest 203 234 4,000 2,700 Climbing FAA TRACON SMA TRACON (SMA)
Mon 01:55:55 PM 39.7836 -75.3617 193° South 215 247 5,000 2,250 Climbing FAA TRACON SMA TRACON (SMA)
Mon 01:56:00 PM 39.8064 -74.8154 105° East  Level FlightAware Approximate
Mon 01:56:15 PM 39.7658 -75.3494 152° Southeast 248 285 5,500  Level FAA TRACON SMA TRACON (SMA)
Mon 01:56:35 PM 39.7533 -75.3250 124° Southeast 274 315 6,000 1,950 Climbing FAA TRACON SMA TRACON (SMA)
Mon 01:56:55 PM 39.7536 -75.2856 89° East 297 342 6,800 2,308 Climbing FAA TRACON SMA TRACON (SMA)
Mon 01:57:00 PM 39.7884 -74.6746 75° East  Level FlightAware Approximate
Mon 01:57:14 PM 39.7578 -75.2531 81° East 297 342 7,500  Level FAA TRACON SMA TRACON (SMA)
Mon 01:57:35 PM 39.7614 -75.2222 81° East 303 349 8,100 2,550 Climbing FAA TRACON SMA TRACON (SMA)
Mon 01:57:54 PM 39.7650 -75.1778 84° East 307 353 9,200 2,769 Climbing FAA TRACON SMA TRACON (SMA)
Mon 01:58:00 PM 39.8000 -74.5309 90° East  Level FlightAware Approximate
Mon 01:58:14 PM 39.7675 -75.1431 85° East 313 360 9,900  Level FAA TRACON SMA TRACON (SMA)
Mon 01:58:34 PM 39.7694 -75.1078 86° East 318 366 10,400 1,800 Climbing FAA TRACON SMA TRACON (SMA)
Mon 01:58:54 PM 39.7719 -75.0639 86° East 334 384 11,100 1,800 Climbing FAA TRACON SMA TRACON (SMA)
Mon 01:59:00 PM 39.8167 -74.3960 90° East  Level FlightAware Approximate
Mon 01:59:14 PM 39.7744 -75.0217 86° East 357 411 11,600  Level FAA TRACON SMA TRACON (SMA)
Mon 01:59:34 PM 39.7767 -74.9819 86° East 358 412 12,000 600 Climbing FAA TRACON SMA TRACON (SMA)
Mon 01:59:54 PM 39.7797 -74.9325 85° East 362 417 12,000  Level FAA TRACON SMA TRACON (SMA)
Mon 02:00:14 PM 39.7822 -74.8906 86° East 368 423 12,000 293 Level FAA TRACON SMA TRACON (SMA)
Mon 02:00:35 PM 39.7847 -74.8397 86° East 372 428 12,200 1,200 Climbing FAA TRACON SMA TRACON (SMA)
Mon 02:00:54 PM 39.7878 -74.7994 84° East 373 429 12,800 1,846 Climbing FAA TRACON SMA TRACON (SMA)
Mon 02:01:14 PM 39.7908 -74.7556 85° East 376 433 13,400 1,950 Climbing FAA TRACON SMA TRACON (SMA)
Mon 02:01:34 PM 39.7933 -74.7133 86° East 379 436 14,100 1,950 Climbing FAA TRACON SMA TRACON (SMA)
Mon 02:01:54 PM 39.7972 -74.6600 85° East 383 441 14,700 1,500 Climbing FAA TRACON SMA TRACON (SMA)
Mon 02:02:14 PM 39.8014 -74.6197 82° East 387 445 15,100 1,500 Climbing FAA TRACON SMA TRACON (SMA)
Mon 02:02:34 PM 39.8042 -74.5744 85° East 391 450 15,700 1,800 Climbing FAA TRACON SMA TRACON (SMA)
Mon 02:02:54 PM 39.8100 -74.5186 82° East 396 456 16,300 1,950 Climbing FAA TRACON SMA TRACON (SMA)
Mon 02:03:14 PM 39.8136 -74.4747 84° East 398 458 17,000 1,500 Climbing FAA TRACON SMA TRACON (SMA)
Mon 02:03:34 PM 39.8172 -74.4308 84° East 398 458 17,300 1,200 Climbing FAA TRACON SMA TRACON (SMA)
Mon 02:03:54 PM 39.8169 -74.3747 90° East 399 459 17,800 1,024 Climbing FAA TRACON SMA TRACON (SMA)
Mon 02:04:15 PM 39.8175 -74.3536 88° East 407 468 18,000 1,176 Climbing FAA TRACON SMA TRACON (SMA)
Mon 02:06:22 PM 39.8964 -74.0708 70° East 375 432 20,700 1,187 Climbing Boston Center
Mon 02:07:22 PM 39.9831 -73.9728 41° Northeast 377 434 21,700 1,038 Climbing Boston Center
Mon 02:08:35 PM 40.0953 -73.8369 43° Northeast 412 474 23,000 582 Climbing Boston Center
Mon 02:09:36 PM 40.1819 -73.7303 43° Northeast 417 480 23,000  Level Boston Center
Mon 02:10:34 PM 40.2686 -73.6258 43° Northeast 424 488 23,000 454 Level Boston Center
Mon 02:11:35 PM 40.3531 -73.5239 43° Northeast 419 482 23,900 787 Climbing Boston Center
Mon 02:12:36 PM 40.4331 -73.4189 45° Northeast 419 482 24,600 1,008 Climbing Boston Center
Mon 02:13:34 PM 40.5194 -73.3136 43° Northeast 414 476 25,900 1,160 Climbing Boston Center
Mon 02:14:35 PM 40.6014 -73.2108 44° Northeast 409 471 26,900 927 Climbing Boston Center
Mon 02:15:37 PM 40.6853 -73.1078 43° Northeast 409 471 27,800 958 Climbing Boston Center
Mon 02:16:34 PM 40.7672 -73.0072 43° Northeast 403 464 28,800 558 Climbing Boston Center
Mon 02:17:46 PM 40.8614 -72.8875 44° Northeast 397 457 29,000 90 Climbing Boston Center
Mon 02:18:47 PM 40.9453 -72.7808 44° Northeast 397 457 29,000  Level Boston Center
Mon 02:19:47 PM 41.0267 -72.6794 43° Northeast 397 457 29,000  Level Boston Center
Mon 02:20:48 PM 41.1042 -72.5833 43° Northeast 397 457 29,000  Level Boston Center
Mon 02:21:46 PM 41.1833 -72.4869 42° Northeast 392 451 29,000  Level Boston Center
Mon 02:22:46 PM 41.2603 -72.3903 43° Northeast 392 451 29,000  Level Boston Center
Mon 02:23:47 PM 41.3311 -72.2936 46° Northeast 392 451 29,000  Level Boston Center
Mon 02:24:48 PM 41.4164 -72.1883 43° Northeast 386 444 29,000  Level Boston Center
Mon 02:25:48 PM 41.4975 -72.0881 43° Northeast 386 444 29,000  Level Boston Center
Mon 02:26:46 PM 41.5742 -71.9850 45° Northeast 386 444 29,000  Level Boston Center
Mon 02:27:46 PM 41.6508 -71.8817 45° Northeast 386 444 29,000  Level Boston Center
Mon 02:28:46 PM 41.7253 -71.7781 46° Northeast 380 437 29,000  Level Boston Center
Mon 02:29:46 PM 41.7997 -71.6714 47° Northeast 380 437 29,000  Level Boston Center
Mon 02:30:47 PM 41.8739 -71.5675 46° Northeast 380 437 29,000 -537 Level Boston Center
Mon 02:31:49 PM 41.9461 -71.4772 43° Northeast 387 445 27,900 -1,563 Descending Boston Center
Mon 02:32:46 PM 42.0203 -71.3725 46° Northeast 387 445 25,900 -1,983 Descending Boston Center
Mon 02:33:47 PM 42.0942 -71.2678 46° Northeast 381 438 24,000 -942 Descending Boston Center
Mon 02:34:47 PM 42.1703 -71.1628 46° Northeast 381 438 24,000  Level Boston Center
Mon 02:35:48 PM 42.2439 -71.0547 47° Northeast 381 438 24,000  Level Boston Center
Mon 02:36:49 PM 42.3197 -70.9492 46° Northeast 381 438 24,000  Level Boston Center
Mon 02:37:47 PM 42.4014 -70.8292 47° Northeast 381 438 24,000 -102 Level Boston Center
Mon 02:38:47 PM 42.4836 -70.7453 37° Northeast 381 438 23,800 -1,150 Descending Boston Center
Mon 02:39:47 PM 42.5767 -70.6975 21° North 358 412 21,700 -2,033 Descending Boston Center
Mon 02:40:48 PM 42.6675 -70.6469 22° Northeast 358 412 19,700 -2,017 Descending Boston Center
Mon 02:41:46 PM 42.7564 -70.5936 24° Northeast 346 398 17,700 -1,881 Descending Boston Center
Mon 02:42:46 PM 42.8347 -70.5458 24° Northeast 346 398 16,000 -1,587 Descending Boston Center
Mon 02:43:47 PM 42.9256 -70.4892 25° Northeast 334 384 14,500 -1,388 Descending Boston Center
Mon 02:44:47 PM 42.9978 -70.4417 26° Northeast 322 371 13,200 -1,400 Descending Boston Center
Mon 02:45:47 PM 43.0864 -70.3847 25° Northeast 316 364 11,700 -1,091 Descending Boston Center
Mon 02:46:48 PM 43.1717 -70.3847 360° North 303 349 11,000 -793 Descending Boston Center
Mon 02:47:48 PM 43.2550 -70.3819 North 295 339 10,100 -1,119 Descending Boston Center
Mon 02:48:46 PM 43.3303 -70.3878 357° North 282 325 8,800 -1,373 Descending Boston Center
Mon 02:49:46 PM 43.3953 -70.4056 349° North 266 306 7,400 -1,131 Descending Boston Center
Mon 02:50:48 PM 43.4642 -70.4233 349° North 242 278 6,500 -1,041 Descending Boston Center
Mon 02:51:47 PM 43.5144 -70.4389 347° North 217 250 5,300 -1,210 Descending Boston Center
Mon 02:52:47 PM 43.5711 -70.4569 347° North 192 221 4,100 -1,033 Descending Boston Center
Mon 02:53:49 PM 43.6108 -70.4700 347° North 174 200 3,200 -871 Descending Boston Center

Login

Don't have an account? Register now (free) for customized features, flight alerts, and more!